Time;durP1;ratioP1;P1;durP2;ratioP2;P2;SDS_P1;SDS_P2;PMS_P1;PMS_P2;Temp;Humidity;BMP_temperature;BMP_pressure;BME280_temperature;BME280_humidity;BME280_pressure;Samples;Min_cycle;Max_cycle;Signal;HPM_P1;HPM_P2
2024/01/23 00:01:52;;;;;;;0.00;0.00;;;10.70;74.30;;;;;;5046451;28;20212;-40
2024/01/23 00:04:26;;;;;;;0.00;0.00;;;10.70;74.40;;;;;;5044565;28;20204;-39
2024/01/23 00:06:54;;;;;;;0.00;0.00;;;10.60;74.40;;;;;;5027133;28;20205;-40
2024/01/23 00:09:21;;;;;;;0.00;0.00;;;10.60;74.60;;;;;;5030555;28;20280;-39
2024/01/23 00:11:51;;;;;;;0.00;0.00;;;10.60;74.60;;;;;;5025290;28;20691;-39
2024/01/23 00:14:18;;;;;;;0.00;0.00;;;10.60;74.20;;;;;;5024678;28;20630;-39
2024/01/23 00:16:45;;;;;;;0.00;0.00;;;10.50;74.30;;;;;;5023935;28;20255;-39
2024/01/23 00:19:12;;;;;;;0.00;0.00;;;10.50;74.50;;;;;;5024678;28;20204;-39
2024/01/23 00:21:40;;;;;;;0.00;0.00;;;10.50;73.90;;;;;;5023019;28;20209;-39
2024/01/23 00:24:10;;;;;;;0.00;0.00;;;10.50;74.50;;;;;;5046345;28;20219;-39
2024/01/23 00:26:37;;;;;;;0.00;0.00;;;10.50;74.50;;;;;;5034295;28;20695;-39
2024/01/23 00:29:07;;;;;;;0.00;0.00;;;10.40;74.50;;;;;;5038320;28;20216;-38
2024/01/23 00:31:36;;;;;;;0.00;0.00;;;10.40;74.40;;;;;;5034310;28;20827;-40
2024/01/23 00:34:08;;;;;;;0.00;0.00;;;10.40;74.20;;;;;;5034215;28;20276;-39
2024/01/23 00:36:42;;;;;;;0.00;0.00;;;10.40;74.30;;;;;;5033694;28;20220;-39
2024/01/23 00:39:09;;;;;;;0.00;0.00;;;10.40;74.40;;;;;;5032674;28;20209;-39
2024/01/23 00:41:39;;;;;;;0.00;0.00;;;10.30;74.50;;;;;;5022834;28;20200;-40
2024/01/23 00:44:09;;;;;;;0.00;0.00;;;10.30;74.60;;;;;;5034415;28;20633;-39
2024/01/23 00:46:36;;;;;;;0.00;0.00;;;10.30;74.80;;;;;;5036253;28;20255;-40
2024/01/23 00:49:03;;;;;;;0.00;0.00;;;10.30;74.70;;;;;;5033293;28;20216;-40
2024/01/23 00:51:31;;;;;;;0.00;0.00;;;10.30;74.70;;;;;;5026876;28;20197;-40
2024/01/23 00:54:02;;;;;;;0.00;0.00;;;10.30;74.50;;;;;;5031858;28;20236;-40
2024/01/23 00:56:29;;;;;;;0.00;0.00;;;10.30;74.50;;;;;;5038494;28;20646;-39
2024/01/23 00:58:56;;;;;;;0.00;0.00;;;10.30;74.50;;;;;;5026102;28;20674;-40
2024/01/23 01:01:26;;;;;;;0.00;0.00;;;10.30;74.50;;;;;;5027851;28;20204;-39
2024/01/23 01:03:54;;;;;;;0.00;0.00;;;10.30;74.70;;;;;;5030896;28;20221;-40
2024/01/23 01:06:21;;;;;;;0.00;0.00;;;10.30;74.70;;;;;;5037452;28;20221;-39
2024/01/23 01:08:53;;;;;;;0.00;0.00;;;10.30;74.40;;;;;;5037496;28;20258;-39
2024/01/23 01:11:21;;;;;;;0.00;0.00;;;10.30;74.50;;;;;;5043825;28;20315;-39
2024/01/23 01:13:48;;;;;;;0.00;0.00;;;10.20;74.40;;;;;;5035390;28;20224;-39
2024/01/23 01:16:19;;;;;;;0.00;0.00;;;10.20;74.60;;;;;;5042237;28;20283;-39
2024/01/23 01:18:49;;;;;;;0.00;0.00;;;10.20;74.30;;;;;;5040519;28;20706;-39
2024/01/23 01:21:16;;;;;;;0.00;0.00;;;10.20;74.50;;;;;;5039604;28;20302;-39
2024/01/23 01:23:46;;;;;;;0.00;0.00;;;10.20;74.40;;;;;;5026006;28;20319;-39
2024/01/23 01:26:15;;;;;;;0.00;0.00;;;10.20;74.60;;;;;;5027365;28;20208;-39
2024/01/23 01:28:43;;;;;;;0.00;0.00;;;10.20;74.60;;;;;;5025749;28;20220;-39
2024/01/23 01:31:12;;;;;;;0.00;0.00;;;10.20;74.50;;;;;;5032301;28;20866;-38
2024/01/23 01:33:39;;;;;;;0.00;0.00;;;10.20;74.50;;;;;;5037177;28;20654;-38
2024/01/23 01:36:09;;;;;;;0.00;0.00;;;10.20;74.60;;;;;;5022392;28;20215;-39
2024/01/23 01:38:39;;;;;;;0.00;0.00;;;10.20;74.60;;;;;;5010032;28;20634;-39
2024/01/23 01:41:17;;;;;;;0.00;0.00;;;10.10;74.60;;;;;;5033073;28;20212;-39
2024/01/23 01:43:49;;;;;;;0.00;0.00;;;10.20;74.90;;;;;;5038815;28;20258;-39
2024/01/23 01:46:23;;;;;;;0.00;0.00;;;10.10;74.60;;;;;;5032872;28;20762;-38
2024/01/23 01:48:54;;;;;;;0.00;0.00;;;10.10;74.80;;;;;;5039524;28;20302;-40
2024/01/23 01:51:28;;;;;;;0.00;0.00;;;10.10;74.80;;;;;;5041516;28;20299;-39
2024/01/23 01:53:57;;;;;;;0.00;0.00;;;10.10;74.80;;;;;;5044452;28;20226;-39
2024/01/23 01:56:27;;;;;;;0.00;0.00;;;10.20;75.00;;;;;;5033844;28;20211;-40
2024/01/23 01:59:02;;;;;;;0.00;0.00;;;10.20;74.90;;;;;;5041592;28;20207;-38
2024/01/23 02:01:32;;;;;;;0.00;0.00;;;10.20;75.00;;;;;;5033841;28;20205;-39
2024/01/23 02:03:59;;;;;;;0.00;0.00;;;10.20;75.00;;;;;;5034719;28;20605;-38
2024/01/23 02:06:27;;;;;;;0.00;0.00;;;10.10;74.60;;;;;;5040251;28;20288;-39
2024/01/23 02:08:57;;;;;;;0.00;0.00;;;10.20;74.80;;;;;;5037037;28;20626;-39
2024/01/23 02:11:25;;;;;;;0.00;0.00;;;10.20;74.60;;;;;;5038925;28;20523;-38
2024/01/23 02:13:54;;;;;;;0.00;0.00;;;10.10;74.80;;;;;;5034853;28;20232;-39
2024/01/23 02:16:23;;;;;;;0.00;0.00;;;10.10;74.80;;;;;;5030506;28;20216;-39
2024/01/23 02:18:53;;;;;;;0.00;0.00;;;10.10;74.80;;;;;;5040290;28;20202;-38
2024/01/23 02:21:20;;;;;;;0.00;0.00;;;10.10;74.90;;;;;;5033482;28;20926;-39
2024/01/23 02:23:49;;;;;;;0.00;0.00;;;10.10;74.60;;;;;;5036978;28;20391;-40
2024/01/23 02:26:19;;;;;;;0.00;0.00;;;10.10;74.60;;;;;;5028966;28;20718;-40
2024/01/23 02:28:49;;;;;;;0.00;0.00;;;10.10;74.70;;;;;;5031755;28;20266;-39
2024/01/23 02:31:18;;;;;;;0.00;0.00;;;10.10;74.60;;;;;;5030143;28;20593;-39
2024/01/23 02:33:48;;;;;;;0.00;0.00;;;10.00;74.60;;;;;;5030777;28;20281;-39
2024/01/23 02:36:19;;;;;;;0.00;0.00;;;10.00;74.50;;;;;;5041697;28;20297;-39
2024/01/23 02:38:47;;;;;;;0.00;0.00;;;10.00;74.60;;;;;;5031422;28;20192;-39
2024/01/23 02:41:16;;;;;;;0.00;0.00;;;10.00;74.50;;;;;;5043609;28;20219;-39
2024/01/23 02:43:45;;;;;;;0.00;0.00;;;10.00;74.30;;;;;;5041852;28;20240;-40
2024/01/23 02:46:13;;;;;;;0.00;0.00;;;10.00;74.50;;;;;;5048863;28;20224;-40
2024/01/23 02:48:44;;;;;;;0.00;0.00;;;9.90;74.40;;;;;;5045215;28;20554;-40
2024/01/23 02:51:20;;;;;;;0.00;0.00;;;9.90;74.40;;;;;;5045791;28;20216;-39
2024/01/23 02:53:48;;;;;;;0.00;0.00;;;9.90;74.40;;;;;;5032683;28;20207;-40
2024/01/23 02:56:15;;;;;;;0.00;0.00;;;9.90;74.40;;;;;;5031685;28;20327;-40
2024/01/23 02:58:42;;;;;;;0.00;0.00;;;9.80;74.30;;;;;;5043051;28;20220;-39
2024/01/23 03:01:11;;;;;;;0.00;0.00;;;9.90;74.30;;;;;;5041096;28;20220;-40
2024/01/23 03:03:41;;;;;;;0.00;0.00;;;9.80;74.40;;;;;;5033249;28;20646;-40
2024/01/23 03:06:13;;;;;;;0.00;0.00;;;9.80;74.50;;;;;;5031775;28;20193;-39
2024/01/23 03:08:40;;;;;;;0.00;0.00;;;9.80;74.50;;;;;;5036404;28;20209;-40
2024/01/23 03:11:08;;;;;;;0.00;0.00;;;9.80;74.60;;;;;;5033479;28;20208;-39
2024/01/23 03:13:35;;;;;;;0.00;0.00;;;9.80;74.30;;;;;;5034788;28;20232;-40
2024/01/23 03:16:07;;;;;;;0.00;0.00;;;9.80;74.40;;;;;;5031920;28;20680;-39
2024/01/23 03:18:34;;;;;;;0.00;0.00;;;9.70;74.30;;;;;;5040879;28;20200;-40
2024/01/23 03:21:03;;;;;;;0.00;0.00;;;9.70;74.30;;;;;;5029900;28;20695;-40
2024/01/23 03:23:33;;;;;;;0.00;0.00;;;9.70;74.30;;;;;;5033255;28;20208;-40
2024/01/23 03:26:00;;;;;;;0.00;0.00;;;9.70;74.30;;;;;;5036285;28;20718;-40
2024/01/23 03:28:34;;;;;;;0.00;0.00;;;9.70;74.30;;;;;;5030641;28;20424;-40
2024/01/23 03:31:08;;;;;;;0.00;0.00;;;9.70;74.30;;;;;;5032633;28;20231;-39
2024/01/23 03:33:40;;;;;;;0.00;0.00;;;9.60;74.00;;;;;;5038612;28;20217;-40
2024/01/23 03:36:08;;;;;;;0.00;0.00;;;9.60;73.90;;;;;;5034194;28;20267;-40
2024/01/23 03:38:35;;;;;;;0.00;0.00;;;9.60;74.10;;;;;;5032926;28;20204;-39
2024/01/23 03:41:02;;;;;;;0.00;0.00;;;9.60;74.20;;;;;;5040637;28;20220;-39
2024/01/23 03:43:32;;;;;;;0.00;0.00;;;9.60;74.30;;;;;;5036504;28;20227;-39
2024/01/23 03:46:03;;;;;;;0.00;0.00;;;9.50;74.10;;;;;;5032931;28;20301;-40
2024/01/23 03:48:37;;;;;;;0.00;0.00;;;9.50;74.20;;;;;;5030995;28;20212;-40
2024/01/23 03:51:05;;;;;;;0.00;0.00;;;9.50;74.30;;;;;;5031144;28;20216;-39
2024/01/23 03:53:32;;;;;;;0.00;0.00;;;9.50;74.30;;;;;;5026631;28;20594;-39
2024/01/23 03:56:04;;;;;;;0.00;0.00;;;9.50;74.30;;;;;;5026260;28;20232;-40
2024/01/23 03:58:31;;;;;;;0.00;0.00;;;9.50;74.30;;;;;;5034779;28;20275;-40
2024/01/23 04:01:00;;;;;;;0.00;0.00;;;9.40;74.10;;;;;;5036090;28;20224;-40
2024/01/23 04:03:30;;;;;;;0.00;0.00;;;9.40;74.20;;;;;;5036761;28;20667;-40
2024/01/23 04:06:01;;;;;;;0.00;0.00;;;9.40;74.20;;;;;;5036438;28;20748;-40
2024/01/23 04:08:28;;;;;;;0.00;0.00;;;9.40;74.30;;;;;;5036131;28;20592;-40
2024/01/23 04:10:59;;;;;;;0.00;0.00;;;9.40;74.20;;;;;;5032736;28;20582;-39
2024/01/23 04:13:27;;;;;;;0.00;0.00;;;9.40;74.00;;;;;;5032127;28;20713;-39
2024/01/23 04:15:54;;;;;;;0.00;0.00;;;9.40;74.20;;;;;;5035932;28;20219;-40
2024/01/23 04:18:23;;;;;;;0.00;0.00;;;9.40;74.10;;;;;;5036091;28;20223;-39
2024/01/23 04:20:58;;;;;;;0.00;0.00;;;9.30;74.10;;;;;;5036823;28;20442;-39
2024/01/23 04:23:30;;;;;;;0.00;0.00;;;9.30;74.10;;;;;;5035400;28;20278;-39
2024/01/23 04:25:59;;;;;;;0.00;0.00;;;9.30;74.30;;;;;;5033125;28;20224;-40
2024/01/23 04:28:26;;;;;;;0.00;0.00;;;9.30;74.00;;;;;;5034246;28;20674;-39
2024/01/23 04:30:56;;;;;;;0.00;0.00;;;9.30;73.90;;;;;;5029828;28;20214;-40
2024/01/23 04:33:25;;;;;;;0.00;0.00;;;9.30;74.10;;;;;;5038691;28;20209;-40
2024/01/23 04:35:52;;;;;;;0.00;0.00;;;9.30;74.10;;;;;;5031905;28;20744;-39
2024/01/23 04:38:24;;;;;;;0.00;0.00;;;9.20;74.20;;;;;;5021978;28;20262;-39
2024/01/23 04:40:54;;;;;;;0.00;0.00;;;9.30;74.20;;;;;;5033750;28;20216;-40
2024/01/23 04:43:21;;;;;;;0.00;0.00;;;9.30;74.20;;;;;;5030917;28;20809;-40
2024/01/23 04:45:50;;;;;;;0.00;0.00;;;9.20;74.20;;;;;;5033059;28;20205;-40
2024/01/23 04:48:20;;;;;;;0.00;0.00;;;9.20;74.10;;;;;;5038317;28;20846;-40
2024/01/23 04:50:50;;;;;;;0.00;0.00;;;9.20;74.10;;;;;;5034042;28;20220;-40
2024/01/23 04:53:22;;;;;;;0.00;0.00;;;9.20;74.20;;;;;;5041784;28;20315;-40
2024/01/23 04:55:52;;;;;;;0.00;0.00;;;9.20;74.00;;;;;;5040451;28;20686;-40
2024/01/23 04:58:24;;;;;;;0.00;0.00;;;9.20;74.20;;;;;;5040604;28;20514;-40
2024/01/23 05:00:54;;;;;;;0.00;0.00;;;9.20;74.20;;;;;;5036514;28;20225;-40
2024/01/23 05:03:23;;;;;;;0.00;0.00;;;9.20;74.30;;;;;;5030365;28;20248;-39
2024/01/23 05:05:51;;;;;;;0.00;0.00;;;9.20;74.30;;;;;;5035013;28;20213;-40
2024/01/23 05:08:18;;;;;;;0.00;0.00;;;9.20;74.30;;;;;;5024881;28;20201;-39
2024/01/23 05:10:48;;;;;;;0.00;0.00;;;9.20;74.30;;;;;;5030205;28;20304;-40
2024/01/23 05:13:17;;;;;;;0.00;0.00;;;9.20;74.20;;;;;;5032764;28;20713;-40
2024/01/23 05:15:44;;;;;;;0.00;0.00;;;9.10;74.20;;;;;;5025162;28;20228;-40
2024/01/23 05:18:12;;;;;;;0.00;0.00;;;9.10;74.00;;;;;;5031898;28;20212;-39
2024/01/23 05:20:39;;;;;;;0.00;0.00;;;9.10;73.90;;;;;;5030764;28;20197;-39
2024/01/23 05:23:09;;;;;;;0.00;0.00;;;9.10;74.00;;;;;;5038918;28;20203;-40
2024/01/23 05:25:41;;;;;;;0.00;0.00;;;9.10;74.00;;;;;;5044503;28;20243;-40
2024/01/23 05:28:08;;;;;;;0.00;0.00;;;9.10;74.10;;;;;;5044787;28;20224;-39
2024/01/23 05:30:37;;;;;;;0.00;0.00;;;9.10;74.10;;;;;;5042024;28;20220;-39
2024/01/23 05:33:10;;;;;;;0.00;0.00;;;9.10;74.10;;;;;;5039030;28;20674;-39
2024/01/23 05:35:39;;;;;;;0.00;0.00;;;9.00;74.10;;;;;;5033425;28;20917;-39
2024/01/23 05:38:07;;;;;;;0.00;0.00;;;9.10;74.10;;;;;;5043207;28;20200;-39
2024/01/23 05:40:36;;;;;;;0.00;0.00;;;9.00;74.10;;;;;;5042426;28;20294;-40
2024/01/23 05:43:08;;;;;;;0.00;0.00;;;9.00;74.10;;;;;;5042622;28;20208;-40
2024/01/23 05:45:35;;;;;;;0.00;0.00;;;9.00;74.10;;;;;;5042059;28;20231;-40
2024/01/23 05:48:07;;;;;;;0.00;0.00;;;9.00;74.10;;;;;;5044320;28;20330;-39
2024/01/23 05:50:39;;;;;;;0.00;0.00;;;9.00;73.90;;;;;;5040630;28;20219;-40
2024/01/23 05:53:07;;;;;;;0.00;0.00;;;9.00;73.90;;;;;;5041138;28;20598;-40
2024/01/23 05:55:36;;;;;;;0.00;0.00;;;9.00;73.90;;;;;;5042328;28;20225;-40
2024/01/23 05:58:03;;;;;;;0.00;0.00;;;8.90;74.00;;;;;;5044720;28;20231;-40
2024/01/23 06:00:33;;;;;;;0.00;0.00;;;8.90;73.90;;;;;;5039947;28;20203;-39
2024/01/23 06:03:00;;;;;;;0.00;0.00;;;8.90;74.00;;;;;;5022442;28;20213;-39
2024/01/23 06:05:28;;;;;;;0.00;0.00;;;8.90;74.00;;;;;;5037042;28;20207;-39
2024/01/23 06:07:55;;;;;;;0.00;0.00;;;8.90;73.90;;;;;;5036355;28;20907;-38
2024/01/23 06:10:25;;;;;;;0.00;0.00;;;8.90;73.90;;;;;;5037225;28;20627;-39
2024/01/23 06:12:56;;;;;;;0.00;0.00;;;8.80;74.00;;;;;;5035763;28;20542;-40
2024/01/23 06:15:24;;;;;;;0.00;0.00;;;8.80;73.90;;;;;;5039910;28;20569;-40
2024/01/23 06:17:58;;;;;;;0.00;0.00;;;8.80;73.90;;;;;;5035722;28;20240;-39
2024/01/23 06:20:30;;;;;;;0.00;0.00;;;8.80;74.00;;;;;;5032988;28;20378;-40
2024/01/23 06:22:58;;;;;;;0.00;0.00;;;8.80;74.10;;;;;;5036794;28;20204;-39
2024/01/23 06:25:27;;;;;;;0.00;0.00;;;8.80;74.10;;;;;;5037496;28;20618;-42
2024/01/23 06:27:54;;;;;;;0.00;0.00;;;8.80;74.10;;;;;;5036625;28;20674;-42
2024/01/23 06:30:21;;;;;;;0.00;0.00;;;8.70;74.10;;;;;;5035038;28;20221;-40
2024/01/23 06:32:51;;;;;;;0.00;0.00;;;8.80;74.10;;;;;;5038997;28;20258;-40
2024/01/23 06:35:18;;;;;;;0.00;0.00;;;8.80;74.10;;;;;;5028647;28;20244;-41
2024/01/23 06:37:48;;;;;;;0.00;0.00;;;8.70;74.00;;;;;;5035979;28;20224;-40
2024/01/23 06:40:19;;;;;;;0.00;0.00;;;8.70;74.80;;;;;;5044396;28;20217;-40
2024/01/23 06:42:46;;;;;;;0.00;0.00;;;8.70;74.00;;;;;;5045783;28;20200;-40
2024/01/23 06:45:16;;;;;;;0.00;0.00;;;8.70;74.10;;;;;;5043448;28;20205;-40
2024/01/23 06:47:46;;;;;;;0.00;0.00;;;8.70;74.30;;;;;;5033883;28;20216;-40
2024/01/23 06:50:13;;;;;;;0.00;0.00;;;8.70;74.30;;;;;;5027069;28;20204;-40
2024/01/23 06:52:45;;;;;;;0.00;0.00;;;8.70;74.30;;;;;;5024363;28;20207;-39
2024/01/23 06:55:12;;;;;;;0.00;0.00;;;8.70;74.30;;;;;;5041896;28;20772;-40
2024/01/23 06:57:42;;;;;;;0.00;0.00;;;8.70;74.30;;;;;;5038874;28;20251;-40
2024/01/23 07:00:10;;;;;;;0.00;0.00;;;8.70;74.30;;;;;;5025615;28;20193;-40
2024/01/23 07:02:37;;;;;;;0.00;0.00;;;8.70;74.10;;;;;;5045549;28;20315;-39
2024/01/23 07:05:07;;;;;;;0.00;0.00;;;8.70;74.10;;;;;;5038377;28;20667;-40
2024/01/23 07:07:35;;;;;;;0.00;0.00;;;8.70;74.10;;;;;;5035275;28;20209;-39
2024/01/23 07:10:05;;;;;;;0.00;0.00;;;8.60;74.10;;;;;;5027972;28;20649;-40
2024/01/23 07:12:32;;;;;;;0.00;0.00;;;8.70;74.10;;;;;;5023016;28;20211;-40
2024/01/23 07:15:01;;;;;;;0.00;0.00;;;8.60;74.00;;;;;;5029289;28;21030;-41
2024/01/23 07:17:30;;;;;;;0.00;0.00;;;8.60;74.00;;;;;;5028209;28;20208;-40
2024/01/23 07:20:03;;;;;;;0.00;0.00;;;8.60;74.10;;;;;;5036372;28;20320;-40
2024/01/23 07:22:32;;;;;;;0.00;0.00;;;8.60;74.10;;;;;;5029959;28;20251;-39
2024/01/23 07:25:02;;;;;;;0.00;0.00;;;8.60;74.10;;;;;;5030759;28;20699;-39
2024/01/23 07:27:32;;;;;;;0.00;0.00;;;8.60;74.10;;;;;;5031048;28;20209;-39
2024/01/23 07:30:04;;;;;;;0.00;0.00;;;8.60;74.10;;;;;;5023637;28;20228;-39
2024/01/23 07:32:36;;;;;;;0.00;0.00;;;8.60;74.20;;;;;;5031596;28;20200;-39
2024/01/23 07:35:04;;;;;;;0.00;0.00;;;8.50;74.10;;;;;;5033208;28;20327;-39
2024/01/23 07:37:38;;;;;;;0.00;0.00;;;8.50;74.10;;;;;;5033908;28;20244;-40
2024/01/23 07:40:08;;;;;;;0.00;0.00;;;8.50;74.10;;;;;;5027584;28;20230;-39
2024/01/23 07:42:38;;;;;;;0.00;0.00;;;8.50;74.20;;;;;;5025650;28;20707;-39
2024/01/23 07:45:08;;;;;;;0.00;0.00;;;8.50;74.20;;;;;;5029444;28;20229;-38
2024/01/23 07:47:35;;;;;;;0.00;0.00;;;8.50;74.20;;;;;;5028857;28;20284;-26
2024/01/23 07:50:07;;;;;;;0.00;0.00;;;8.50;74.30;;;;;;5024145;28;20303;-26
2024/01/23 07:52:35;;;;;;;0.00;0.00;;;8.50;74.20;;;;;;5027964;28;20224;-26
2024/01/23 07:55:03;;;;;;;0.00;0.00;;;8.50;74.20;;;;;;5029000;28;20939;-26
2024/01/23 07:57:35;;;;;;;0.00;0.00;;;8.50;74.10;;;;;;5026876;28;20204;-27
2024/01/23 08:00:03;;;;;;;0.00;0.00;;;8.40;74.00;;;;;;5024274;28;20561;-27
2024/01/23 08:02:31;;;;;;;0.00;0.00;;;8.40;74.80;;;;;;5032989;28;20774;-26
2024/01/23 08:04:59;;;;;;;0.00;0.00;;;8.40;74.10;;;;;;5028760;28;20224;-26
2024/01/23 08:07:26;;;;;;;0.00;0.00;;;8.40;74.10;;;;;;5030397;28;20224;-27
2024/01/23 08:09:54;;;;;;;0.00;0.00;;;8.40;74.10;;;;;;5034267;28;21064;-27
2024/01/23 08:12:21;;;;;;;0.00;0.00;;;8.40;74.20;;;;;;5027932;28;20235;-26
2024/01/23 08:14:50;;;;;;;0.00;0.00;;;8.40;74.20;;;;;;5034469;28;20204;-26
2024/01/23 08:17:19;;;;;;;0.00;0.00;;;8.40;74.20;;;;;;5038026;28;21014;-26
2024/01/23 08:19:50;;;;;;;0.00;0.00;;;8.40;74.20;;;;;;5035841;28;20719;-27
2024/01/23 08:22:20;;;;;;;0.00;0.00;;;8.40;74.20;;;;;;5028784;28;20712;-26
2024/01/23 08:24:49;;;;;;;0.00;0.00;;;8.40;74.20;;;;;;5040496;28;20204;-26
2024/01/23 08:27:16;;;;;;;0.00;0.00;;;8.40;74.20;;;;;;5042887;28;20208;-27
2024/01/23 08:29:46;;;;;;;0.00;0.00;;;8.40;74.30;;;;;;5016605;28;20745;-26
2024/01/23 08:32:13;;;;;;;0.00;0.00;;;8.40;74.30;;;;;;5031216;28;20219;-27
2024/01/23 08:34:43;;;;;;;0.00;0.00;;;8.40;74.40;;;;;;5034635;28;20665;-26
2024/01/23 08:37:14;;;;;;;0.00;0.00;;;8.40;74.40;;;;;;5034313;28;20592;-28
2024/01/23 08:39:42;;;;;;;0.00;0.00;;;8.40;74.40;;;;;;5033649;28;21118;-27
2024/01/23 08:42:09;;;;;;;0.00;0.00;;;8.50;74.40;;;;;;5031974;28;20224;-27
2024/01/23 08:44:36;;;;;;;0.00;0.00;;;8.50;74.50;;;;;;5038979;28;20642;-27
2024/01/23 08:47:04;;;;;;;0.00;0.00;;;8.50;74.50;;;;;;5034813;28;21014;-27
2024/01/23 08:49:33;;;;;;;0.00;0.00;;;8.60;74.50;;;;;;5039716;28;20204;-27
2024/01/23 08:52:05;;;;;;;0.00;0.00;;;8.60;74.50;;;;;;5033233;28;20205;-27
2024/01/23 08:54:37;;;;;;;0.00;0.00;;;8.60;74.50;;;;;;5028838;28;20217;-28
2024/01/23 08:57:05;;;;;;;0.00;0.00;;;8.60;74.50;;;;;;5033023;28;20737;-26
2024/01/23 08:59:35;;;;;;;0.00;0.00;;;8.60;74.50;;;;;;5030773;28;20239;-27
2024/01/23 09:02:06;;;;;;;0.00;0.00;;;8.60;74.50;;;;;;5041207;28;20690;-27
2024/01/23 09:04:33;;;;;;;0.00;0.00;;;8.60;74.50;;;;;;5034348;28;20306;-27
2024/01/23 09:07:01;;;;;;;0.00;0.00;;;8.60;74.50;;;;;;5035064;28;20299;-27
2024/01/23 09:09:30;;;;;;;0.00;0.00;;;8.60;74.50;;;;;;5030094;28;20266;-27
2024/01/23 09:12:01;;;;;;;0.00;0.00;;;8.60;74.60;;;;;;5039826;28;20298;-27
2024/01/23 09:14:28;;;;;;;0.00;0.00;;;8.60;74.50;;;;;;5029555;28;20220;-27
2024/01/23 09:16:55;;;;;;;0.00;0.00;;;8.70;74.60;;;;;;5014894;28;20227;-26
2024/01/23 09:19:24;;;;;;;0.00;0.00;;;8.70;74.60;;;;;;5025055;28;20670;-26
2024/01/23 09:21:56;;;;;;;0.00;0.00;;;8.70;74.60;;;;;;5036715;28;20637;-27
2024/01/23 09:24:23;;;;;;;0.00;0.00;;;8.70;74.60;;;;;;5035885;28;21115;-27
2024/01/23 09:26:58;;;;;;;0.00;0.00;;;8.80;74.80;;;;;;5032058;28;20346;-27
2024/01/23 09:29:26;;;;;;;0.00;0.00;;;8.80;74.70;;;;;;5033264;28;20204;-27
2024/01/23 09:31:55;;;;;;;0.00;0.00;;;8.80;74.70;;;;;;5033400;28;20213;-27
2024/01/23 09:34:22;;;;;;;0.00;0.00;;;8.80;74.80;;;;;;5036190;28;20240;-27
2024/01/23 09:36:50;;;;;;;0.00;0.00;;;8.80;74.70;;;;;;5029307;28;20228;-27
2024/01/23 09:39:18;;;;;;;0.00;0.00;;;8.80;74.70;;;;;;5032878;28;20253;-27
2024/01/23 09:41:50;;;;;;;0.00;0.00;;;8.80;74.70;;;;;;5032848;28;20200;-26
2024/01/23 09:44:23;;;;;;;0.00;0.00;;;8.90;74.80;;;;;;5037290;28;20204;-27
2024/01/23 09:46:51;;;;;;;0.00;0.00;;;8.90;74.80;;;;;;5036722;28;20212;-27
2024/01/23 09:49:19;;;;;;;0.00;0.00;;;8.90;74.80;;;;;;5044404;28;20293;-27
2024/01/23 09:51:49;;;;;;;0.00;0.00;;;8.90;74.90;;;;;;5029258;28;20279;-27
2024/01/23 09:54:23;;;;;;;0.00;0.00;;;9.00;74.90;;;;;;5035193;28;20604;-27
2024/01/23 09:56:53;;;;;;;0.00;0.00;;;9.00;75.30;;;;;;5030828;28;20346;-27
2024/01/23 09:59:21;;;;;;;0.00;0.00;;;9.00;75.00;;;;;;5039063;28;20204;-27
2024/01/23 10:01:48;;;;;;;0.00;0.00;;;9.10;75.10;;;;;;5033360;28;20270;-28
2024/01/23 10:04:23;;;;;;;0.00;0.00;;;9.10;75.10;;;;;;5031683;28;20208;-27
2024/01/23 10:06:52;;;;;;;0.00;0.00;;;9.10;75.10;;;;;;5034805;28;20273;-27
2024/01/23 10:09:20;;;;;;;0.00;0.00;;;9.20;75.20;;;;;;5033076;28;20204;-26
2024/01/23 10:11:47;;;;;;;0.00;0.00;;;9.20;75.10;;;;;;5038252;28;20211;-27
2024/01/23 10:14:17;;;;;;;0.00;0.00;;;9.20;75.10;;;;;;5030629;28;20233;-27
2024/01/23 10:16:47;;;;;;;0.00;0.00;;;9.30;75.30;;;;;;5033932;28;20719;-26
2024/01/23 10:19:16;;;;;;;0.00;0.00;;;9.30;75.30;;;;;;5031818;28;20199;-27
2024/01/23 10:21:46;;;;;;;0.00;0.00;;;9.40;75.30;;;;;;5030241;28;20228;-27
2024/01/23 10:24:16;;;;;;;0.00;0.00;;;9.40;75.30;;;;;;5033657;28;20204;-27
2024/01/23 10:26:48;;;;;;;0.00;0.00;;;9.50;75.60;;;;;;5037462;28;20566;-27
2024/01/23 10:29:15;;;;;;;0.00;0.00;;;9.50;75.40;;;;;;5036667;28;20197;-27
2024/01/23 10:31:44;;;;;;;0.00;0.00;;;9.60;75.60;;;;;;5034099;28;20653;-26
2024/01/23 10:34:14;;;;;;;0.00;0.00;;;9.60;75.60;;;;;;5032935;28;20303;-27
2024/01/23 10:36:44;;;;;;;0.00;0.00;;;9.70;75.60;;;;;;5033842;28;20220;-27
2024/01/23 10:39:16;;;;;;;0.00;0.00;;;9.70;75.60;;;;;;5042472;28;20315;-27
2024/01/23 10:41:44;;;;;;;0.00;0.00;;;9.80;75.60;;;;;;5032900;28;20197;-26
2024/01/23 10:44:18;;;;;;;0.00;0.00;;;9.80;75.70;;;;;;5037943;28;20293;-27
2024/01/23 10:46:49;;;;;;;0.00;0.00;;;9.90;75.70;;;;;;5033755;28;20217;-26
2024/01/23 10:49:17;;;;;;;0.00;0.00;;;9.90;75.70;;;;;;5036039;28;20310;-27
2024/01/23 10:51:49;;;;;;;0.00;0.00;;;10.00;75.80;;;;;;5037144;28;20227;-27
2024/01/23 10:54:30;;;;;;;0.00;0.00;;;10.00;75.80;;;;;;5028266;28;20211;-27
2024/01/23 10:57:07;;;;;;;0.00;0.00;;;10.10;75.80;;;;;;5032110;28;20221;-27
2024/01/23 10:59:38;;;;;;;0.00;0.00;;;10.10;75.80;;;;;;5033578;28;20282;-27
2024/01/23 11:02:12;;;;;;;0.00;0.00;;;10.20;75.80;;;;;;5033330;28;20601;-27
2024/01/23 11:04:43;;;;;;;0.00;0.00;;;10.20;75.80;;;;;;5031051;28;20658;-27
2024/01/23 11:07:25;;;;;;;0.00;0.00;;;10.30;75.90;;;;;;5032127;28;20216;-27
2024/01/23 11:10:08;;;;;;;0.00;0.00;;;10.30;75.90;;;;;;5038360;28;20244;-27
2024/01/23 11:13:04;;;;;;;0.00;0.00;;;10.40;75.90;;;;;;5033387;28;20212;-27
2024/01/23 11:15:34;;;;;;;0.00;0.00;;;10.40;75.80;;;;;;5041012;28;20296;-27
2024/01/23 11:18:28;;;;;;;0.00;0.00;;;10.40;75.80;;;;;;5033705;28;20828;-27
2024/01/23 11:21:08;;;;;;;0.00;0.00;;;10.50;76.00;;;;;;5031450;28;20675;-27
2024/01/23 11:23:43;;;;;;;0.00;0.00;;;10.50;76.00;;;;;;5035338;28;20205;-27
2024/01/23 11:26:15;;;;;;;0.00;0.00;;;10.50;76.00;;;;;;5035495;28;20291;-27
2024/01/23 11:28:54;;;;;;;0.00;0.00;;;10.60;76.00;;;;;;5026813;28;20206;-27
2024/01/23 11:31:22;;;;;;;0.00;0.00;;;10.60;76.00;;;;;;5037999;28;20286;-27
2024/01/23 11:34:13;;;;;;;0.00;0.00;;;10.60;75.90;;;;;;5032452;28;20252;-27
2024/01/23 11:36:41;;;;;;;0.00;0.00;;;10.70;76.00;;;;;;5030221;28;20224;-29
2024/01/23 11:39:22;;;;;;;0.00;0.00;;;10.70;76.00;;;;;;5027446;28;20237;-29
2024/01/23 11:41:50;;;;;;;0.00;0.00;;;10.80;76.10;;;;;;5030945;28;20420;-29
2024/01/23 11:44:18;;;;;;;0.00;0.00;;;10.80;76.00;;;;;;5036349;28;20196;-27
2024/01/23 11:46:49;;;;;;;0.00;0.00;;;10.90;76.00;;;;;;5037518;28;20215;-27
2024/01/23 11:49:18;;;;;;;0.00;0.00;;;10.90;76.00;;;;;;5032429;28;20203;-27
2024/01/23 11:51:50;;;;;;;0.00;0.00;;;10.90;76.00;;;;;;5033446;28;20308;-27
2024/01/23 11:54:18;;;;;;;0.00;0.00;;;11.00;76.10;;;;;;5034411;28;20232;-27
2024/01/23 11:56:48;;;;;;;0.00;0.00;;;11.00;76.10;;;;;;5030045;28;20236;-27
2024/01/23 11:59:20;;;;;;;0.00;0.00;;;11.00;76.20;;;;;;5029783;28;20823;-27
2024/01/23 12:01:47;;;;;;;0.00;0.00;;;11.10;76.10;;;;;;5027660;28;20204;-27
2024/01/23 12:04:17;;;;;;;0.00;0.00;;;11.20;76.20;;;;;;5032810;28;20205;-27
2024/01/23 12:06:48;;;;;;;0.00;0.00;;;11.20;76.10;;;;;;5031987;28;20204;-27
2024/01/23 12:09:19;;;;;;;0.00;0.00;;;11.20;76.20;;;;;;5032527;28;20200;-27
2024/01/23 12:11:50;;;;;;;0.00;0.00;;;11.30;76.10;;;;;;5028439;28;20219;-27
2024/01/23 12:14:17;;;;;;;0.00;0.00;;;11.30;76.00;;;;;;5026404;28;20204;-28
2024/01/23 12:16:45;;;;;;;0.00;0.00;;;11.30;76.00;;;;;;5028783;28;20644;-27
2024/01/23 12:19:14;;;;;;;0.00;0.00;;;11.30;75.90;;;;;;5028868;28;20197;-27
2024/01/23 12:21:44;;;;;;;0.00;0.00;;;11.40;76.00;;;;;;5027606;28;20625;-27
2024/01/23 12:24:13;;;;;;;0.00;0.00;;;11.40;76.10;;;;;;5046417;28;20271;-27
2024/01/23 12:26:47;;;;;;;0.00;0.00;;;11.40;76.10;;;;;;5028636;28;20622;-27
2024/01/23 12:29:15;;;;;;;0.00;0.00;;;11.50;76.10;;;;;;5031162;28;20216;-27
2024/01/23 12:31:44;;;;;;;0.00;0.00;;;11.50;76.20;;;;;;5032461;28;20208;-27
2024/01/23 12:34:14;;;;;;;0.00;0.00;;;11.60;76.20;;;;;;5037930;28;20239;-27
2024/01/23 12:36:48;;;;;;;0.00;0.00;;;11.60;76.20;;;;;;5028670;28;20223;-27
2024/01/23 12:39:20;;;;;;;0.00;0.00;;;11.60;76.10;;;;;;5028638;28;20192;-27
2024/01/23 12:41:49;;;;;;;0.00;0.00;;;11.70;76.10;;;;;;5027551;28;20288;-26
2024/01/23 12:44:19;;;;;;;0.00;0.00;;;11.70;76.00;;;;;;5020987;28;20717;-27
2024/01/23 12:46:46;;;;;;;0.00;0.00;;;11.70;76.00;;;;;;5023473;28;20281;-27
2024/01/23 12:49:15;;;;;;;0.00;0.00;;;11.70;76.00;;;;;;5021241;28;20314;-27
2024/01/23 12:51:47;;;;;;;0.00;0.00;;;11.70;76.00;;;;;;5023117;28;20205;-27
2024/01/23 12:54:19;;;;;;;0.00;0.00;;;11.80;76.10;;;;;;5022308;28;20219;-27
2024/01/23 12:56:49;;;;;;;0.00;0.00;;;11.80;76.00;;;;;;5028132;28;20267;-27
2024/01/23 12:59:18;;;;;;;0.00;0.00;;;11.80;75.90;;;;;;5033009;28;20570;-27
2024/01/23 13:01:47;;;;;;;0.00;0.00;;;11.80;76.00;;;;;;5024091;28;20193;-27
2024/01/23 13:04:15;;;;;;;0.00;0.00;;;11.80;75.90;;;;;;5029969;28;20307;-27
2024/01/23 13:06:43;;;;;;;0.00;0.00;;;11.80;76.70;;;;;;5031618;28;20201;-27